sensor_id;sensor_type;location;lat;lon;timestamp;P1;durP1;ratioP1;P2;durP2;ratioP2
20739;SDS011;10530;49.968;19.844;2023-11-19T00:00:21;15.68;;;7.18;;
20739;SDS011;10530;49.968;19.844;2023-11-19T00:05:25;18.15;;;6.72;;
20739;SDS011;10530;49.968;19.844;2023-11-19T00:10:29;14.40;;;6.63;;
20739;SDS011;10530;49.968;19.844;2023-11-19T00:15:32;15.82;;;5.35;;
20739;SDS011;10530;49.968;19.844;2023-11-19T00:20:36;17.02;;;6.63;;
20739;SDS011;10530;49.968;19.844;2023-11-19T00:25:39;19.40;;;7.65;;
20739;SDS011;10530;49.968;19.844;2023-11-19T00:30:42;17.13;;;7.43;;
20739;SDS011;10530;49.968;19.844;2023-11-19T00:35:45;18.93;;;8.60;;
20739;SDS011;10530;49.968;19.844;2023-11-19T00:40:48;19.98;;;6.75;;
20739;SDS011;10530;49.968;19.844;2023-11-19T00:45:51;19.10;;;6.35;;
20739;SDS011;10530;49.968;19.844;2023-11-19T00:50:54;21.10;;;6.57;;
20739;SDS011;10530;49.968;19.844;2023-11-19T00:55:58;22.65;;;8.40;;
20739;SDS011;10530;49.968;19.844;2023-11-19T01:01:01;21.40;;;7.73;;
20739;SDS011;10530;49.968;19.844;2023-11-19T01:06:04;21.25;;;8.02;;
20739;SDS011;10530;49.968;19.844;2023-11-19T01:11:07;21.48;;;6.97;;
20739;SDS011;10530;49.968;19.844;2023-11-19T01:16:11;18.17;;;6.28;;
20739;SDS011;10530;49.968;19.844;2023-11-19T01:21:15;24.42;;;6.90;;
20739;SDS011;10530;49.968;19.844;2023-11-19T01:26:18;23.20;;;7.67;;
20739;SDS011;10530;49.968;19.844;2023-11-19T01:31:22;16.15;;;6.18;;
20739;SDS011;10530;49.968;19.844;2023-11-19T01:36:25;19.08;;;7.10;;
20739;SDS011;10530;49.968;19.844;2023-11-19T01:41:28;21.20;;;8.15;;
20739;SDS011;10530;49.968;19.844;2023-11-19T01:46:31;16.77;;;7.88;;
20739;SDS011;10530;49.968;19.844;2023-11-19T01:51:35;16.90;;;6.63;;
20739;SDS011;10530;49.968;19.844;2023-11-19T01:56:38;25.42;;;7.78;;
20739;SDS011;10530;49.968;19.844;2023-11-19T02:01:43;23.58;;;8.07;;
20739;SDS011;10530;49.968;19.844;2023-11-19T02:06:46;20.52;;;7.10;;
20739;SDS011;10530;49.968;19.844;2023-11-19T02:11:51;18.70;;;7.63;;
20739;SDS011;10530;49.968;19.844;2023-11-19T02:16:55;22.03;;;8.13;;
20739;SDS011;10530;49.968;19.844;2023-11-19T02:21:58;20.88;;;7.10;;
20739;SDS011;10530;49.968;19.844;2023-11-19T02:27:05;19.67;;;7.22;;
20739;SDS011;10530;49.968;19.844;2023-11-19T02:32:13;18.73;;;6.20;;
20739;SDS011;10530;49.968;19.844;2023-11-19T02:37:17;17.45;;;6.25;;
20739;SDS011;10530;49.968;19.844;2023-11-19T02:42:21;19.50;;;7.10;;
20739;SDS011;10530;49.968;19.844;2023-11-19T02:47:24;22.10;;;7.75;;
20739;SDS011;10530;49.968;19.844;2023-11-19T02:52:27;16.65;;;6.72;;
20739;SDS011;10530;49.968;19.844;2023-11-19T02:57:31;19.52;;;6.53;;
20739;SDS011;10530;49.968;19.844;2023-11-19T03:02:34;18.25;;;6.85;;
20739;SDS011;10530;49.968;19.844;2023-11-19T03:07:46;14.57;;;5.90;;
20739;SDS011;10530;49.968;19.844;2023-11-19T03:12:50;20.35;;;6.80;;
20739;SDS011;10530;49.968;19.844;2023-11-19T03:17:53;16.85;;;6.75;;
20739;SDS011;10530;49.968;19.844;2023-11-19T03:23:02;21.13;;;6.60;;
20739;SDS011;10530;49.968;19.844;2023-11-19T03:28:05;19.95;;;7.05;;
20739;SDS011;10530;49.968;19.844;2023-11-19T03:33:08;19.00;;;7.27;;
20739;SDS011;10530;49.968;19.844;2023-11-19T03:38:11;22.98;;;8.40;;
20739;SDS011;10530;49.968;19.844;2023-11-19T03:43:16;18.35;;;6.60;;
20739;SDS011;10530;49.968;19.844;2023-11-19T03:48:21;22.17;;;7.53;;
20739;SDS011;10530;49.968;19.844;2023-11-19T03:53:24;14.32;;;6.53;;
20739;SDS011;10530;49.968;19.844;2023-11-19T03:58:27;16.90;;;6.57;;
20739;SDS011;10530;49.968;19.844;2023-11-19T04:03:30;24.00;;;7.03;;
20739;SDS011;10530;49.968;19.844;2023-11-19T04:08:34;16.40;;;5.53;;
20739;SDS011;10530;49.968;19.844;2023-11-19T04:13:37;19.42;;;7.43;;
20739;SDS011;10530;49.968;19.844;2023-11-19T04:18:40;23.90;;;7.28;;
20739;SDS011;10530;49.968;19.844;2023-11-19T04:23:44;21.60;;;7.97;;
20739;SDS011;10530;49.968;19.844;2023-11-19T04:28:47;23.35;;;8.27;;
20739;SDS011;10530;49.968;19.844;2023-11-19T04:33:54;24.63;;;8.57;;
20739;SDS011;10530;49.968;19.844;2023-11-19T04:38:57;25.60;;;8.50;;
20739;SDS011;10530;49.968;19.844;2023-11-19T04:44:01;21.30;;;8.10;;
20739;SDS011;10530;49.968;19.844;2023-11-19T04:49:04;17.53;;;5.77;;
20739;SDS011;10530;49.968;19.844;2023-11-19T04:54:08;19.25;;;7.43;;
20739;SDS011;10530;49.968;19.844;2023-11-19T04:59:11;20.83;;;7.47;;
20739;SDS011;10530;49.968;19.844;2023-11-19T05:04:14;21.58;;;7.88;;
20739;SDS011;10530;49.968;19.844;2023-11-19T05:09:17;19.63;;;7.22;;
20739;SDS011;10530;49.968;19.844;2023-11-19T05:14:20;18.03;;;6.63;;
20739;SDS011;10530;49.968;19.844;2023-11-19T05:19:24;16.52;;;6.47;;
20739;SDS011;10530;49.968;19.844;2023-11-19T05:24:27;15.15;;;6.03;;
20739;SDS011;10530;49.968;19.844;2023-11-19T05:29:31;19.13;;;6.97;;
20739;SDS011;10530;49.968;19.844;2023-11-19T05:34:34;20.85;;;6.72;;
20739;SDS011;10530;49.968;19.844;2023-11-19T05:39:37;25.53;;;7.87;;
20739;SDS011;10530;49.968;19.844;2023-11-19T05:44:40;16.65;;;6.72;;
20739;SDS011;10530;49.968;19.844;2023-11-19T05:49:43;13.57;;;5.40;;
20739;SDS011;10530;49.968;19.844;2023-11-19T05:54:46;13.27;;;5.53;;
20739;SDS011;10530;49.968;19.844;2023-11-19T05:59:53;17.45;;;7.30;;
20739;SDS011;10530;49.968;19.844;2023-11-19T06:04:56;14.83;;;6.80;;
20739;SDS011;10530;49.968;19.844;2023-11-19T06:09:59;17.92;;;6.43;;
20739;SDS011;10530;49.968;19.844;2023-11-19T06:15:04;18.38;;;6.70;;
20739;SDS011;10530;49.968;19.844;2023-11-19T06:20:08;17.73;;;8.25;;
20739;SDS011;10530;49.968;19.844;2023-11-19T06:25:12;20.13;;;6.53;;
20739;SDS011;10530;49.968;19.844;2023-11-19T06:30:16;19.93;;;7.40;;
20739;SDS011;10530;49.968;19.844;2023-11-19T06:35:19;23.65;;;8.95;;
20739;SDS011;10530;49.968;19.844;2023-11-19T06:40:22;15.40;;;6.95;;
20739;SDS011;10530;49.968;19.844;2023-11-19T06:45:25;26.35;;;8.48;;
20739;SDS011;10530;49.968;19.844;2023-11-19T06:50:28;18.15;;;7.18;;
20739;SDS011;10530;49.968;19.844;2023-11-19T06:55:32;26.63;;;9.97;;
20739;SDS011;10530;49.968;19.844;2023-11-19T07:00:35;24.38;;;8.45;;
20739;SDS011;10530;49.968;19.844;2023-11-19T07:05:38;27.40;;;9.50;;
20739;SDS011;10530;49.968;19.844;2023-11-19T07:10:41;22.65;;;8.00;;
20739;SDS011;10530;49.968;19.844;2023-11-19T07:15:44;27.80;;;9.85;;
20739;SDS011;10530;49.968;19.844;2023-11-19T07:20:48;18.30;;;7.43;;
20739;SDS011;10530;49.968;19.844;2023-11-19T07:25:51;29.10;;;9.35;;
20739;SDS011;10530;49.968;19.844;2023-11-19T07:30:55;25.52;;;9.35;;
20739;SDS011;10530;49.968;19.844;2023-11-19T07:35:58;23.88;;;8.63;;
20739;SDS011;10530;49.968;19.844;2023-11-19T07:41:02;25.20;;;7.50;;
20739;SDS011;10530;49.968;19.844;2023-11-19T07:46:05;25.50;;;8.37;;
20739;SDS011;10530;49.968;19.844;2023-11-19T07:51:10;26.63;;;7.80;;
20739;SDS011;10530;49.968;19.844;2023-11-19T07:56:14;20.58;;;7.85;;
20739;SDS011;10530;49.968;19.844;2023-11-19T08:01:17;20.92;;;7.28;;
20739;SDS011;10530;49.968;19.844;2023-11-19T08:06:20;22.05;;;8.60;;
20739;SDS011;10530;49.968;19.844;2023-11-19T08:11:23;20.47;;;6.53;;
20739;SDS011;10530;49.968;19.844;2023-11-19T08:16:27;23.88;;;7.57;;
20739;SDS011;10530;49.968;19.844;2023-11-19T08:21:30;19.85;;;8.23;;
20739;SDS011;10530;49.968;19.844;2023-11-19T08:26:34;16.05;;;6.30;;
20739;SDS011;10530;49.968;19.844;2023-11-19T08:31:37;17.65;;;6.20;;
20739;SDS011;10530;49.968;19.844;2023-11-19T08:36:41;18.93;;;6.27;;
20739;SDS011;10530;49.968;19.844;2023-11-19T08:41:44;18.30;;;6.57;;
20739;SDS011;10530;49.968;19.844;2023-11-19T08:46:47;14.48;;;5.80;;
20739;SDS011;10530;49.968;19.844;2023-11-19T08:51:51;14.93;;;6.70;;
20739;SDS011;10530;49.968;19.844;2023-11-19T08:56:54;18.60;;;5.32;;
20739;SDS011;10530;49.968;19.844;2023-11-19T09:01:57;10.60;;;4.40;;
20739;SDS011;10530;49.968;19.844;2023-11-19T09:07:00;13.57;;;4.57;;
20739;SDS011;10530;49.968;19.844;2023-11-19T09:12:04;14.30;;;5.22;;
20739;SDS011;10530;49.968;19.844;2023-11-19T09:17:07;11.65;;;4.03;;
20739;SDS011;10530;49.968;19.844;2023-11-19T09:22:12;14.05;;;4.47;;
20739;SDS011;10530;49.968;19.844;2023-11-19T09:27:15;15.07;;;5.97;;
20739;SDS011;10530;49.968;19.844;2023-11-19T09:32:18;13.32;;;5.07;;
20739;SDS011;10530;49.968;19.844;2023-11-19T09:37:23;14.10;;;5.25;;
20739;SDS011;10530;49.968;19.844;2023-11-19T09:42:26;13.93;;;5.38;;
20739;SDS011;10530;49.968;19.844;2023-11-19T09:47:30;11.65;;;4.65;;
20739;SDS011;10530;49.968;19.844;2023-11-19T09:52:33;15.07;;;5.57;;
20739;SDS011;10530;49.968;19.844;2023-11-19T09:57:37;16.83;;;5.30;;
20739;SDS011;10530;49.968;19.844;2023-11-19T10:02:41;13.15;;;4.80;;
20739;SDS011;10530;49.968;19.844;2023-11-19T10:07:49;16.50;;;5.93;;
20739;SDS011;10530;49.968;19.844;2023-11-19T10:12:52;23.88;;;7.25;;
20739;SDS011;10530;49.968;19.844;2023-11-19T10:17:58;13.23;;;4.97;;
20739;SDS011;10530;49.968;19.844;2023-11-19T10:23:01;10.50;;;3.45;;
20739;SDS011;10530;49.968;19.844;2023-11-19T10:28:04;15.65;;;5.78;;
20739;SDS011;10530;49.968;19.844;2023-11-19T10:38:14;14.07;;;5.47;;
20739;SDS011;10530;49.968;19.844;2023-11-19T10:43:18;10.53;;;4.27;;
20739;SDS011;10530;49.968;19.844;2023-11-19T10:48:22;8.85;;;3.65;;
20739;SDS011;10530;49.968;19.844;2023-11-19T10:53:27;11.15;;;4.65;;
20739;SDS011;10530;49.968;19.844;2023-11-19T10:58:32;11.02;;;3.95;;
20739;SDS011;10530;49.968;19.844;2023-11-19T11:03:41;11.23;;;3.95;;
20739;SDS011;10530;49.968;19.844;2023-11-19T11:08:46;10.97;;;4.07;;
20739;SDS011;10530;49.968;19.844;2023-11-19T11:13:49;10.82;;;3.53;;
20739;SDS011;10530;49.968;19.844;2023-11-19T11:18:52;13.82;;;5.40;;
20739;SDS011;10530;49.968;19.844;2023-11-19T11:29:24;17.70;;;4.57;;
20739;SDS011;10530;49.968;19.844;2023-11-19T11:34:40;12.67;;;4.00;;
20739;SDS011;10530;49.968;19.844;2023-11-19T11:39:47;9.77;;;3.60;;
20739;SDS011;10530;49.968;19.844;2023-11-19T11:44:59;12.30;;;4.10;;
20739;SDS011;10530;49.968;19.844;2023-11-19T11:50:16;8.38;;;3.55;;
20739;SDS011;10530;49.968;19.844;2023-11-19T11:55:27;11.63;;;4.30;;
20739;SDS011;10530;49.968;19.844;2023-11-19T12:00:31;9.30;;;3.80;;
20739;SDS011;10530;49.968;19.844;2023-11-19T12:05:41;7.95;;;3.25;;
20739;SDS011;10530;49.968;19.844;2023-11-19T12:10:52;8.80;;;3.13;;
20739;SDS011;10530;49.968;19.844;2023-11-19T12:20:59;8.32;;;3.13;;
20739;SDS011;10530;49.968;19.844;2023-11-19T12:26:03;9.13;;;3.73;;
20739;SDS011;10530;49.968;19.844;2023-11-19T12:31:10;10.00;;;3.35;;
20739;SDS011;10530;49.968;19.844;2023-11-19T12:36:13;9.32;;;3.00;;
20739;SDS011;10530;49.968;19.844;2023-11-19T12:41:16;10.25;;;3.78;;
20739;SDS011;10530;49.968;19.844;2023-11-19T12:46:22;12.75;;;3.40;;
20739;SDS011;10530;49.968;19.844;2023-11-19T12:51:32;9.53;;;3.13;;
20739;SDS011;10530;49.968;19.844;2023-11-19T12:56:35;7.93;;;3.90;;
20739;SDS011;10530;49.968;19.844;2023-11-19T13:01:40;7.80;;;2.85;;
20739;SDS011;10530;49.968;19.844;2023-11-19T13:06:45;10.18;;;2.83;;
20739;SDS011;10530;49.968;19.844;2023-11-19T13:12:12;9.18;;;3.58;;
20739;SDS011;10530;49.968;19.844;2023-11-19T13:17:17;10.40;;;3.03;;
20739;SDS011;10530;49.968;19.844;2023-11-19T13:22:20;7.53;;;2.78;;
20739;SDS011;10530;49.968;19.844;2023-11-19T13:27:23;11.10;;;3.70;;
20739;SDS011;10530;49.968;19.844;2023-11-19T13:32:26;7.80;;;3.30;;
20739;SDS011;10530;49.968;19.844;2023-11-19T13:37:29;10.00;;;3.85;;
20739;SDS011;10530;49.968;19.844;2023-11-19T13:42:33;10.80;;;4.30;;
20739;SDS011;10530;49.968;19.844;2023-11-19T13:47:36;11.93;;;4.32;;
20739;SDS011;10530;49.968;19.844;2023-11-19T13:52:40;11.18;;;4.07;;
20739;SDS011;10530;49.968;19.844;2023-11-19T13:57:43;16.92;;;5.68;;
20739;SDS011;10530;49.968;19.844;2023-11-19T14:02:47;16.55;;;7.28;;
20739;SDS011;10530;49.968;19.844;2023-11-19T14:07:50;12.33;;;4.50;;
20739;SDS011;10530;49.968;19.844;2023-11-19T14:12:53;17.70;;;5.78;;
20739;SDS011;10530;49.968;19.844;2023-11-19T14:17:56;16.13;;;6.88;;
20739;SDS011;10530;49.968;19.844;2023-11-19T14:22:59;12.48;;;5.32;;
20739;SDS011;10530;49.968;19.844;2023-11-19T14:28:03;18.80;;;7.30;;
20739;SDS011;10530;49.968;19.844;2023-11-19T14:33:07;16.53;;;6.13;;
20739;SDS011;10530;49.968;19.844;2023-11-19T14:38:11;15.07;;;5.32;;
20739;SDS011;10530;49.968;19.844;2023-11-19T14:43:14;13.75;;;5.60;;
20739;SDS011;10530;49.968;19.844;2023-11-19T14:48:17;15.57;;;6.07;;
20739;SDS011;10530;49.968;19.844;2023-11-19T14:53:21;11.90;;;4.43;;
20739;SDS011;10530;49.968;19.844;2023-11-19T14:58:24;14.03;;;5.13;;
20739;SDS011;10530;49.968;19.844;2023-11-19T15:03:27;15.05;;;5.43;;
20739;SDS011;10530;49.968;19.844;2023-11-19T15:08:31;14.90;;;5.25;;
20739;SDS011;10530;49.968;19.844;2023-11-19T15:13:34;11.93;;;4.32;;
20739;SDS011;10530;49.968;19.844;2023-11-19T15:18:40;14.00;;;5.88;;
20739;SDS011;10530;49.968;19.844;2023-11-19T15:23:43;15.73;;;5.70;;
20739;SDS011;10530;49.968;19.844;2023-11-19T15:28:46;14.85;;;6.47;;
20739;SDS011;10530;49.968;19.844;2023-11-19T15:33:49;18.00;;;6.40;;
20739;SDS011;10530;49.968;19.844;2023-11-19T15:38:53;18.20;;;6.72;;
20739;SDS011;10530;49.968;19.844;2023-11-19T15:43:57;16.08;;;6.18;;
20739;SDS011;10530;49.968;19.844;2023-11-19T15:49:00;16.23;;;6.20;;
20739;SDS011;10530;49.968;19.844;2023-11-19T15:54:04;19.17;;;7.15;;
20739;SDS011;10530;49.968;19.844;2023-11-19T15:59:08;17.90;;;6.75;;
20739;SDS011;10530;49.968;19.844;2023-11-19T16:04:11;13.70;;;5.88;;
20739;SDS011;10530;49.968;19.844;2023-11-19T16:09:14;14.77;;;6.18;;
20739;SDS011;10530;49.968;19.844;2023-11-19T16:14:21;15.97;;;6.10;;
20739;SDS011;10530;49.968;19.844;2023-11-19T16:19:24;17.17;;;7.18;;
20739;SDS011;10530;49.968;19.844;2023-11-19T16:24:28;15.73;;;7.10;;
20739;SDS011;10530;49.968;19.844;2023-11-19T16:29:32;26.30;;;11.10;;
20739;SDS011;10530;49.968;19.844;2023-11-19T16:34:35;24.17;;;9.50;;
20739;SDS011;10530;49.968;19.844;2023-11-19T16:39:44;30.30;;;11.07;;
20739;SDS011;10530;49.968;19.844;2023-11-19T16:44:47;28.52;;;10.95;;
20739;SDS011;10530;49.968;19.844;2023-11-19T16:49:51;21.00;;;9.57;;
20739;SDS011;10530;49.968;19.844;2023-11-19T16:54:55;28.60;;;11.82;;
20739;SDS011;10530;49.968;19.844;2023-11-19T16:59:58;23.13;;;10.05;;
20739;SDS011;10530;49.968;19.844;2023-11-19T17:05:02;27.73;;;10.77;;
20739;SDS011;10530;49.968;19.844;2023-11-19T17:10:06;27.90;;;11.38;;
20739;SDS011;10530;49.968;19.844;2023-11-19T17:15:10;34.42;;;12.27;;
20739;SDS011;10530;49.968;19.844;2023-11-19T17:20:13;30.67;;;13.10;;
20739;SDS011;10530;49.968;19.844;2023-11-19T17:25:17;37.58;;;15.88;;
20739;SDS011;10530;49.968;19.844;2023-11-19T17:30:20;40.13;;;15.53;;
20739;SDS011;10530;49.968;19.844;2023-11-19T17:35:24;32.05;;;13.60;;
20739;SDS011;10530;49.968;19.844;2023-11-19T17:40:27;38.17;;;15.25;;
20739;SDS011;10530;49.968;19.844;2023-11-19T17:45:30;30.38;;;13.00;;
20739;SDS011;10530;49.968;19.844;2023-11-19T17:50:33;39.22;;;16.45;;
20739;SDS011;10530;49.968;19.844;2023-11-19T17:55:37;33.77;;;15.50;;
20739;SDS011;10530;49.968;19.844;2023-11-19T18:00:41;38.60;;;14.65;;
20739;SDS011;10530;49.968;19.844;2023-11-19T18:05:44;35.97;;;15.27;;
20739;SDS011;10530;49.968;19.844;2023-11-19T18:10:47;36.85;;;14.40;;
20739;SDS011;10530;49.968;19.844;2023-11-19T18:15:50;10.40;;;5.50;;
20739;SDS011;10530;49.968;19.844;2023-11-19T18:20:53;21.37;;;9.67;;
20739;SDS011;10530;49.968;19.844;2023-11-19T18:25:58;30.70;;;11.15;;
20739;SDS011;10530;49.968;19.844;2023-11-19T18:31:01;25.08;;;10.90;;
20739;SDS011;10530;49.968;19.844;2023-11-19T18:36:06;28.02;;;12.32;;
20739;SDS011;10530;49.968;19.844;2023-11-19T18:41:09;23.40;;;9.10;;
20739;SDS011;10530;49.968;19.844;2023-11-19T18:46:15;18.73;;;6.47;;
20739;SDS011;10530;49.968;19.844;2023-11-19T18:51:18;11.13;;;4.90;;
20739;SDS011;10530;49.968;19.844;2023-11-19T18:56:21;9.07;;;3.13;;
20739;SDS011;10530;49.968;19.844;2023-11-19T19:01:24;12.65;;;2.50;;
20739;SDS011;10530;49.968;19.844;2023-11-19T19:06:32;4.97;;;1.65;;
20739;SDS011;10530;49.968;19.844;2023-11-19T19:11:35;6.40;;;2.33;;
20739;SDS011;10530;49.968;19.844;2023-11-19T19:16:38;6.00;;;2.40;;
20739;SDS011;10530;49.968;19.844;2023-11-19T19:21:42;6.85;;;2.88;;
20739;SDS011;10530;49.968;19.844;2023-11-19T19:26:45;6.38;;;2.35;;
20739;SDS011;10530;49.968;19.844;2023-11-19T19:31:48;5.97;;;2.45;;
20739;SDS011;10530;49.968;19.844;2023-11-19T19:36:52;9.17;;;2.57;;
20739;SDS011;10530;49.968;19.844;2023-11-19T19:41:56;5.75;;;2.38;;
20739;SDS011;10530;49.968;19.844;2023-11-19T19:46:59;9.55;;;1.85;;
20739;SDS011;10530;49.968;19.844;2023-11-19T19:52:02;7.35;;;2.13;;
20739;SDS011;10530;49.968;19.844;2023-11-19T19:57:05;5.78;;;2.20;;
20739;SDS011;10530;49.968;19.844;2023-11-19T20:02:08;6.83;;;2.17;;
20739;SDS011;10530;49.968;19.844;2023-11-19T20:07:12;7.70;;;2.63;;
20739;SDS011;10530;49.968;19.844;2023-11-19T20:12:15;7.95;;;2.38;;
20739;SDS011;10530;49.968;19.844;2023-11-19T20:17:18;5.25;;;2.00;;
20739;SDS011;10530;49.968;19.844;2023-11-19T20:22:22;5.47;;;1.77;;
20739;SDS011;10530;49.968;19.844;2023-11-19T20:27:25;6.00;;;2.37;;
20739;SDS011;10530;49.968;19.844;2023-11-19T20:32:28;5.13;;;2.25;;
20739;SDS011;10530;49.968;19.844;2023-11-19T20:37:31;6.82;;;2.30;;
20739;SDS011;10530;49.968;19.844;2023-11-19T20:42:35;5.35;;;1.90;;
20739;SDS011;10530;49.968;19.844;2023-11-19T20:47:39;5.97;;;2.28;;
20739;SDS011;10530;49.968;19.844;2023-11-19T20:52:43;6.87;;;2.50;;
20739;SDS011;10530;49.968;19.844;2023-11-19T20:57:47;6.47;;;1.92;;
20739;SDS011;10530;49.968;19.844;2023-11-19T21:02:51;6.88;;;2.78;;
20739;SDS011;10530;49.968;19.844;2023-11-19T21:07:57;6.40;;;2.60;;
20739;SDS011;10530;49.968;19.844;2023-11-19T21:13:01;14.13;;;3.58;;
20739;SDS011;10530;49.968;19.844;2023-11-19T21:18:05;6.53;;;2.30;;
20739;SDS011;10530;49.968;19.844;2023-11-19T21:23:08;6.57;;;2.90;;
20739;SDS011;10530;49.968;19.844;2023-11-19T21:28:12;8.80;;;2.97;;
20739;SDS011;10530;49.968;19.844;2023-11-19T21:33:16;6.78;;;2.97;;
20739;SDS011;10530;49.968;19.844;2023-11-19T21:38:20;8.70;;;2.75;;
20739;SDS011;10530;49.968;19.844;2023-11-19T21:43:24;6.63;;;2.27;;
20739;SDS011;10530;49.968;19.844;2023-11-19T21:48:27;6.60;;;2.65;;
20739;SDS011;10530;49.968;19.844;2023-11-19T21:53:30;6.97;;;2.03;;
20739;SDS011;10530;49.968;19.844;2023-11-19T21:58:33;9.10;;;2.60;;
20739;SDS011;10530;49.968;19.844;2023-11-19T22:03:37;6.95;;;2.20;;
20739;SDS011;10530;49.968;19.844;2023-11-19T22:08:40;6.00;;;2.37;;
20739;SDS011;10530;49.968;19.844;2023-11-19T22:13:44;6.93;;;2.20;;
20739;SDS011;10530;49.968;19.844;2023-11-19T22:18:48;6.32;;;2.13;;
20739;SDS011;10530;49.968;19.844;2023-11-19T22:23:51;6.57;;;2.55;;
20739;SDS011;10530;49.968;19.844;2023-11-19T22:28:55;5.90;;;2.10;;
20739;SDS011;10530;49.968;19.844;2023-11-19T22:33:58;7.20;;;2.53;;
20739;SDS011;10530;49.968;19.844;2023-11-19T22:39:02;6.70;;;2.28;;
20739;SDS011;10530;49.968;19.844;2023-11-19T22:44:05;6.45;;;2.20;;
20739;SDS011;10530;49.968;19.844;2023-11-19T22:49:09;9.45;;;2.42;;
20739;SDS011;10530;49.968;19.844;2023-11-19T22:54:12;4.70;;;1.85;;
20739;SDS011;10530;49.968;19.844;2023-11-19T22:59:15;5.47;;;1.90;;
20739;SDS011;10530;49.968;19.844;2023-11-19T23:04:18;7.00;;;2.63;;
20739;SDS011;10530;49.968;19.844;2023-11-19T23:09:21;6.97;;;2.20;;
20739;SDS011;10530;49.968;19.844;2023-11-19T23:14:24;5.93;;;2.00;;
20739;SDS011;10530;49.968;19.844;2023-11-19T23:19:27;8.55;;;2.78;;
20739;SDS011;10530;49.968;19.844;2023-11-19T23:24:30;7.13;;;2.73;;
20739;SDS011;10530;49.968;19.844;2023-11-19T23:29:33;9.65;;;2.35;;
20739;SDS011;10530;49.968;19.844;2023-11-19T23:34:36;5.82;;;2.75;;
20739;SDS011;10530;49.968;19.844;2023-11-19T23:39:43;9.98;;;2.75;;
20739;SDS011;10530;49.968;19.844;2023-11-19T23:44:47;9.18;;;3.00;;
20739;SDS011;10530;49.968;19.844;2023-11-19T23:49:50;10.50;;;3.70;;
20739;SDS011;10530;49.968;19.844;2023-11-19T23:54:54;9.15;;;3.10;;
20739;SDS011;10530;49.968;19.844;2023-11-19T23:59:57;6.03;;;2.60;;
